PWSweather.com
Personal Weather Stations
Station Observations
KILMORRI1
Goose Lake, Morris, IL 60450

Goose LakeMorris, IL 60450

Lat: 41.34, Lon: -88.3

Elevation: 523

Station Type:

www.gooselakeweather.com

High Low Average
Temperature 51.0°F10.6°C 27.0°F-2.8°C 41.4°F5.2°C
Dew Point 36.8°F2.7°C 21.9°F-5.6°C 28.3°F-2.1°C
Winds 12.7 mph 20.4 kmh 2.3 mph 3.7 kmh 7.0 mph SSE11.3 kmh SSE
Wind Gusts 23.0 mph37.0 kmh 3.5 mph5.6 kmh 11.0 mph17.7 kmh
Humidity 83% 42% 61%
Pressure 30.47 in1031.8 mb 29.99 in1015.6 mb -
Precipitation 0.00 in0.0 mm - -
Hour Temp Dew Point Humidity Winds Wind Gusts Pressure Precip Precip Rate Daily Precip Total
12:00 AM 28.4°F-2.0°C 23.0°F-5.0°C 80% 3.5 mph ESE5.6 kmh ESE 3.5 mph5.6 kmh 30.48 in1032.2 mb - 0.00 in0.0 mm 0.00 in0.0 mm
12:10 AM 28.6°F-1.9°C 23.2°F-4.9°C 80% 4.6 mph ESE7.4 kmh ESE 6.9 mph11.1 kmh 30.48 in1032.2 mb - 0.00 in0.0 mm 0.00 in0.0 mm
12:20 AM 28.7°F-1.8°C 23.3°F-4.8°C 80% 5.8 mph E9.3 kmh E 8.1 mph13.0 kmh 30.47 in1031.8 mb - 0.00 in0.0 mm 0.00 in0.0 mm
12:30 AM 29.0°F-1.7°C 23.3°F-4.8°C 79% 6.9 mph ESE11.1 kmh ESE 10.4 mph16.7 kmh 30.46 in1031.5 mb - 0.00 in0.0 mm 0.00 in0.0 mm
12:40 AM 29.2°F-1.6°C 23.5°F-4.7°C 79% 5.8 mph ESE9.3 kmh ESE 8.1 mph13.0 kmh 30.46 in1031.5 mb - 0.00 in0.0 mm 0.00 in0.0 mm
12:50 AM 29.1°F-1.6°C 23.1°F-4.9°C 78% 8.1 mph ESE13.0 kmh ESE 10.4 mph16.7 kmh 30.45 in1031.2 mb - 0.00 in0.0 mm 0.00 in0.0 mm
01:00 AM 28.8°F-1.8°C 22.8°F-5.1°C 78% 6.9 mph ESE11.1 kmh ESE 9.2 mph14.8 kmh 30.45 in1031.2 mb - 0.00 in0.0 mm 0.00 in0.0 mm
01:10 AM 28.6°F-1.9°C 22.6°F-5.2°C 78% 4.6 mph ESE7.4 kmh ESE 6.9 mph11.1 kmh 30.45 in1031.2 mb - 0.00 in0.0 mm 0.00 in0.0 mm
01:20 AM 28.3°F-2.1°C 22.3°F-5.4°C 78% 2.3 mph ESE3.7 kmh ESE 3.5 mph5.6 kmh 30.46 in1031.5 mb - 0.00 in0.0 mm 0.00 in0.0 mm
01:30 AM 27.9°F-2.3°C 22.2°F-5.4°C 79% 3.5 mph ESE5.6 kmh ESE 3.5 mph5.6 kmh 30.46 in1031.5 mb - 0.00 in0.0 mm 0.00 in0.0 mm
01:40 AM 27.3°F-2.6°C 22.2°F-5.4°C 81% 2.3 mph ESE3.7 kmh ESE 3.5 mph5.6 kmh 30.47 in1031.8 mb - 0.00 in0.0 mm 0.00 in0.0 mm
01:50 AM 27.0°F-2.8°C 21.9°F-5.6°C 81% 3.5 mph ESE5.6 kmh ESE 3.5 mph5.6 kmh 30.47 in1031.8 mb - 0.00 in0.0 mm 0.00 in0.0 mm
02:00 AM 27.0°F-2.8°C 22.3°F-5.4°C 82% 3.5 mph E5.6 kmh E 4.6 mph7.4 kmh 30.47 in1031.8 mb - 0.00 in0.0 mm 0.00 in0.0 mm
02:10 AM 27.7°F-2.4°C 23.2°F-4.9°C 83% 4.6 mph ESE7.4 kmh ESE 8.1 mph13.0 kmh 30.46 in1031.5 mb - 0.00 in0.0 mm 0.00 in0.0 mm
02:20 AM 28.6°F-1.9°C 23.5°F-4.7°C 81% 5.8 mph ESE9.3 kmh ESE 5.8 mph9.3 kmh 30.46 in1031.5 mb - 0.00 in0.0 mm 0.00 in0.0 mm
02:30 AM 29.1°F-1.6°C 23.7°F-4.6°C 80% 6.9 mph ESE11.1 kmh ESE 9.2 mph14.8 kmh 30.45 in1031.2 mb - 0.00 in0.0 mm 0.00 in0.0 mm
02:40 AM 29.6°F-1.3°C 23.9°F-4.5°C 79% 8.1 mph ESE13.0 kmh ESE 9.2 mph14.8 kmh 30.44 in1030.8 mb - 0.00 in0.0 mm 0.00 in0.0 mm
02:50 AM 30.0°F-1.1°C 23.7°F-4.6°C 77% 6.9 mph ESE11.1 kmh ESE 8.1 mph13.0 kmh 30.44 in1030.8 mb - 0.00 in0.0 mm 0.00 in0.0 mm
03:00 AM 30.3°F-0.9°C 24.0°F-4.4°C 77% 3.5 mph ESE5.6 kmh ESE 4.6 mph7.4 kmh 30.45 in1031.2 mb - 0.00 in0.0 mm 0.00 in0.0 mm
03:10 AM 30.6°F-0.8°C 23.9°F-4.5°C 76% 9.2 mph ESE14.8 kmh ESE 10.4 mph16.7 kmh 30.43 in1030.5 mb - 0.00 in0.0 mm 0.00 in0.0 mm
03:20 AM 30.9°F-0.6°C 23.9°F-4.5°C 75% 8.1 mph SE13.0 kmh SE 10.4 mph16.7 kmh 30.43 in1030.5 mb - 0.00 in0.0 mm 0.00 in0.0 mm
03:30 AM 31.2°F-0.4°C 23.9°F-4.5°C 74% 5.8 mph ESE9.3 kmh ESE 6.9 mph11.1 kmh 30.44 in1030.8 mb - 0.00 in0.0 mm 0.00 in0.0 mm
03:40 AM 31.3°F-0.4°C 23.7°F-4.6°C 73% 2.3 mph ESE3.7 kmh ESE 3.5 mph5.6 kmh 30.43 in1030.5 mb - 0.00 in0.0 mm 0.00 in0.0 mm
03:50 AM 31.5°F-0.3°C 23.8°F-4.6°C 73% 8.1 mph ESE13.0 kmh ESE 11.5 mph18.5 kmh 30.42 in1030.1 mb - 0.00 in0.0 mm 0.00 in0.0 mm
04:00 AM 31.6°F-0.2°C 23.6°F-4.7°C 72% 8.1 mph SE13.0 kmh SE 11.5 mph18.5 kmh 30.43 in1030.5 mb - 0.00 in0.0 mm 0.00 in0.0 mm
04:10 AM 31.8°F-0.1°C 23.5°F-4.7°C 71% 8.1 mph SE13.0 kmh SE 11.5 mph18.5 kmh 30.42 in1030.1 mb - 0.00 in0.0 mm 0.00 in0.0 mm
04:20 AM 32.0°F0.0°C 23.6°F-4.7°C 71% 6.9 mph SE11.1 kmh SE 11.5 mph18.5 kmh 30.42 in1030.1 mb - 0.00 in0.0 mm 0.00 in0.0 mm
04:30 AM 32.1°F0.1°C 23.4°F-4.8°C 70% 2.3 mph SE3.7 kmh SE 9.2 mph14.8 kmh 30.42 in1030.1 mb - 0.00 in0.0 mm 0.00 in0.0 mm
04:40 AM 32.4°F0.2°C 23.3°F-4.8°C 69% 5.8 mph SE9.3 kmh SE 10.4 mph16.7 kmh 30.42 in1030.1 mb - 0.00 in0.0 mm 0.00 in0.0 mm
04:50 AM 32.5°F0.3°C 23.5°F-4.7°C 69% 6.9 mph SE11.1 kmh SE 11.5 mph18.5 kmh 30.43 in1030.5 mb - 0.00 in0.0 mm 0.00 in0.0 mm
05:00 AM 32.6°F0.3°C 23.9°F-4.5°C 70% 3.5 mph SE5.6 kmh SE 4.6 mph7.4 kmh 30.43 in1030.5 mb - 0.00 in0.0 mm 0.00 in0.0 mm
05:10 AM 32.6°F0.3°C 23.5°F-4.7°C 69% 5.8 mph SE9.3 kmh SE 6.9 mph11.1 kmh 30.43 in1030.5 mb - 0.00 in0.0 mm 0.00 in0.0 mm
05:20 AM 32.6°F0.3°C 23.9°F-4.5°C 70% 5.8 mph SE9.3 kmh SE 8.1 mph13.0 kmh 30.43 in1030.5 mb - 0.00 in0.0 mm 0.00 in0.0 mm
05:30 AM 32.6°F0.3°C 23.2°F-4.9°C 68% 5.8 mph SE9.3 kmh SE 8.1 mph13.0 kmh 30.43 in1030.5 mb - 0.00 in0.0 mm 0.00 in0.0 mm
05:40 AM 32.6°F0.3°C 23.9°F-4.5°C 70% 4.6 mph SE7.4 kmh SE 5.8 mph9.3 kmh 30.43 in1030.5 mb - 0.00 in0.0 mm 0.00 in0.0 mm
05:50 AM 32.7°F0.4°C 24.0°F-4.4°C 70% 5.8 mph SE9.3 kmh SE 8.1 mph13.0 kmh 30.42 in1030.1 mb - 0.00 in0.0 mm 0.00 in0.0 mm
06:00 AM 32.7°F0.4°C 23.6°F-4.7°C 69% 5.8 mph SE9.3 kmh SE 12.7 mph20.4 kmh 30.41 in1029.8 mb - 0.00 in0.0 mm 0.00 in0.0 mm
06:10 AM 32.7°F0.4°C 23.6°F-4.7°C 69% 5.8 mph SE9.3 kmh SE 8.1 mph13.0 kmh 30.41 in1029.8 mb - 0.00 in0.0 mm 0.00 in0.0 mm
06:20 AM 32.8°F0.4°C 23.7°F-4.6°C 69% 5.8 mph SE9.3 kmh SE 9.2 mph14.8 kmh 30.41 in1029.8 mb - 0.00 in0.0 mm 0.00 in0.0 mm
06:30 AM 32.8°F0.4°C 23.7°F-4.6°C 69% 5.8 mph SE9.3 kmh SE 11.5 mph18.5 kmh 30.41 in1029.8 mb - 0.00 in0.0 mm 0.00 in0.0 mm
06:40 AM 32.8°F0.4°C 23.4°F-4.8°C 68% 8.1 mph SE13.0 kmh SE 8.1 mph13.0 kmh 30.41 in1029.8 mb - 0.00 in0.0 mm 0.00 in0.0 mm
06:50 AM 32.7°F0.4°C 23.6°F-4.7°C 69% 10.4 mph SE16.7 kmh SE 12.7 mph20.4 kmh 30.41 in1029.8 mb - 0.00 in0.0 mm 0.00 in0.0 mm
07:00 AM 32.8°F0.4°C 23.7°F-4.6°C 69% 5.8 mph ESE9.3 kmh ESE 6.9 mph11.1 kmh 30.42 in1030.1 mb - 0.00 in0.0 mm 0.00 in0.0 mm
07:10 AM 32.8°F0.4°C 24.4°F-4.2°C 71% 3.5 mph SE5.6 kmh SE 3.5 mph5.6 kmh 30.43 in1030.5 mb - 0.00 in0.0 mm 0.00 in0.0 mm
07:20 AM 32.6°F0.3°C 24.6°F-4.1°C 72% 4.6 mph ESE7.4 kmh ESE 4.6 mph7.4 kmh 30.43 in1030.5 mb - 0.00 in0.0 mm 0.00 in0.0 mm
07:30 AM 32.8°F0.4°C 24.8°F-4.0°C 72% 2.3 mph ESE3.7 kmh ESE 3.5 mph5.6 kmh 30.43 in1030.5 mb - 0.00 in0.0 mm 0.00 in0.0 mm
07:40 AM 32.9°F0.5°C 23.8°F-4.6°C 69% 4.6 mph SE7.4 kmh SE 8.1 mph13.0 kmh 30.42 in1030.1 mb - 0.00 in0.0 mm 0.00 in0.0 mm
07:50 AM 33.1°F0.6°C 24.0°F-4.4°C 69% 5.8 mph SE9.3 kmh SE 8.1 mph13.0 kmh 30.42 in1030.1 mb - 0.00 in0.0 mm 0.00 in0.0 mm
08:00 AM 33.3°F0.7°C 23.9°F-4.5°C 68% 8.1 mph SE13.0 kmh SE 11.5 mph18.5 kmh 30.41 in1029.8 mb - 0.00 in0.0 mm 0.00 in0.0 mm
08:10 AM 33.4°F0.8°C 24.0°F-4.4°C 68% 8.1 mph SE13.0 kmh SE 11.5 mph18.5 kmh 30.41 in1029.8 mb - 0.00 in0.0 mm 0.00 in0.0 mm
08:20 AM 33.7°F0.9°C 23.9°F-4.5°C 67% 9.2 mph SE14.8 kmh SE 13.8 mph22.2 kmh 30.40 in1029.5 mb - 0.00 in0.0 mm 0.00 in0.0 mm
08:30 AM 34.0°F1.1°C 23.8°F-4.6°C 66% 4.6 mph SSE7.4 kmh SSE 9.2 mph14.8 kmh 30.41 in1029.8 mb - 0.00 in0.0 mm 0.00 in0.0 mm
08:40 AM 34.4°F1.3°C 24.9°F-3.9°C 68% 4.6 mph SE7.4 kmh SE 8.1 mph13.0 kmh 30.41 in1029.8 mb - 0.00 in0.0 mm 0.00 in0.0 mm
08:50 AM 34.4°F1.3°C 24.2°F-4.3°C 66% 4.6 mph SE7.4 kmh SE 9.2 mph14.8 kmh 30.41 in1029.8 mb - 0.00 in0.0 mm 0.00 in0.0 mm
09:00 AM 34.8°F1.6°C 24.9°F-3.9°C 67% 6.9 mph SE11.1 kmh SE 12.7 mph20.4 kmh 30.41 in1029.8 mb - 0.00 in0.0 mm 0.00 in0.0 mm
09:10 AM 34.9°F1.6°C 24.7°F-4.1°C 66% 9.2 mph SE14.8 kmh SE 11.5 mph18.5 kmh 30.41 in1029.8 mb - 0.00 in0.0 mm 0.00 in0.0 mm
09:20 AM 35.1°F1.7°C 24.9°F-3.9°C 66% 5.8 mph SE9.3 kmh SE 10.4 mph16.7 kmh 30.40 in1029.5 mb - 0.00 in0.0 mm 0.00 in0.0 mm
09:30 AM 35.6°F2.0°C 25.0°F-3.9°C 65% 9.2 mph SSE14.8 kmh SSE 11.5 mph18.5 kmh 30.40 in1029.5 mb - 0.00 in0.0 mm 0.00 in0.0 mm
09:40 AM 35.9°F2.2°C 25.6°F-3.6°C 66% 6.9 mph SSE11.1 kmh SSE 11.5 mph18.5 kmh 30.40 in1029.5 mb - 0.00 in0.0 mm 0.00 in0.0 mm
09:50 AM 36.2°F2.3°C 25.2°F-3.8°C 64% 8.1 mph SE13.0 kmh SE 11.5 mph18.5 kmh 30.40 in1029.5 mb - 0.00 in0.0 mm 0.00 in0.0 mm
10:00 AM 36.4°F2.4°C 25.4°F-3.7°C 64% 9.2 mph SSE14.8 kmh SSE 15.0 mph24.1 kmh 30.40 in1029.5 mb - 0.00 in0.0 mm 0.00 in0.0 mm
10:10 AM 37.3°F2.9°C 26.2°F-3.2°C 64% 5.8 mph SE9.3 kmh SE 9.2 mph14.8 kmh 30.39 in1029.1 mb - 0.00 in0.0 mm 0.00 in0.0 mm
10:20 AM 38.0°F3.3°C 26.5°F-3.1°C 63% 10.4 mph SSE16.7 kmh SSE 19.6 mph31.5 kmh 30.39 in1029.1 mb - 0.00 in0.0 mm 0.00 in0.0 mm
10:30 AM 38.6°F3.7°C 26.7°F-2.9°C 62% 6.9 mph SSE11.1 kmh SSE 15.0 mph24.1 kmh 30.39 in1029.1 mb - 0.00 in0.0 mm 0.00 in0.0 mm
10:40 AM 38.9°F3.8°C 26.2°F-3.2°C 60% 5.8 mph SSE9.3 kmh SSE 13.8 mph22.2 kmh 30.38 in1028.8 mb - 0.00 in0.0 mm 0.00 in0.0 mm
10:50 AM 40.6°F4.8°C 26.9°F-2.8°C 58% 8.1 mph SSE13.0 kmh SSE 11.5 mph18.5 kmh 30.38 in1028.8 mb - 0.00 in0.0 mm 0.00 in0.0 mm
11:00 AM 41.8°F5.4°C 27.2°F-2.7°C 56% 8.1 mph SE13.0 kmh SE 11.5 mph18.5 kmh 30.37 in1028.4 mb - 0.00 in0.0 mm 0.00 in0.0 mm
11:10 AM 42.3°F5.7°C 27.3°F-2.6°C 55% 8.1 mph S13.0 kmh S 11.5 mph18.5 kmh 30.37 in1028.4 mb - 0.00 in0.0 mm 0.00 in0.0 mm
11:20 AM 42.3°F5.7°C 27.7°F-2.4°C 56% 5.8 mph SSE9.3 kmh SSE 8.1 mph13.0 kmh 30.37 in1028.4 mb - 0.00 in0.0 mm 0.00 in0.0 mm
11:30 AM 42.9°F6.1°C 26.9°F-2.8°C 53% 6.9 mph S11.1 kmh S 12.7 mph20.4 kmh 30.37 in1028.4 mb - 0.00 in0.0 mm 0.00 in0.0 mm
11:40 AM 43.4°F6.3°C 27.4°F-2.6°C 53% 5.8 mph SE9.3 kmh SE 11.5 mph18.5 kmh 30.36 in1028.1 mb - 0.00 in0.0 mm 0.00 in0.0 mm
11:50 AM 42.7°F5.9°C 27.6°F-2.4°C 55% 8.1 mph SSE13.0 kmh SSE 11.5 mph18.5 kmh 30.35 in1027.8 mb - 0.00 in0.0 mm 0.00 in0.0 mm
12:00 PM 42.5°F5.8°C 27.4°F-2.6°C 55% 4.6 mph S7.4 kmh S 10.4 mph16.7 kmh 30.34 in1027.4 mb - 0.00 in0.0 mm 0.00 in0.0 mm
12:10 PM 43.1°F6.2°C 28.0°F-2.2°C 55% 4.6 mph SSE7.4 kmh SSE 9.2 mph14.8 kmh 30.34 in1027.4 mb - 0.00 in0.0 mm 0.00 in0.0 mm
12:20 PM 44.8°F7.1°C 29.6°F-1.3°C 55% 6.9 mph S11.1 kmh S 11.5 mph18.5 kmh 30.33 in1027.1 mb - 0.00 in0.0 mm 0.00 in0.0 mm
12:30 PM 44.9°F7.2°C 29.7°F-1.3°C 55% 11.5 mph SE18.5 kmh SE 13.8 mph22.2 kmh 30.32 in1026.8 mb - 0.00 in0.0 mm 0.00 in0.0 mm
12:40 PM 44.5°F6.9°C 29.3°F-1.5°C 55% 9.2 mph SE14.8 kmh SE 16.1 mph25.9 kmh 30.31 in1026.4 mb - 0.00 in0.0 mm 0.00 in0.0 mm
12:50 PM 45.3°F7.4°C 29.2°F-1.6°C 53% 6.9 mph SSE11.1 kmh SSE 9.2 mph14.8 kmh 30.30 in1026.1 mb - 0.00 in0.0 mm 0.00 in0.0 mm
01:00 PM 45.5°F7.5°C 30.2°F-1.0°C 55% 9.2 mph SE14.8 kmh SE 13.8 mph22.2 kmh 30.29 in1025.7 mb - 0.00 in0.0 mm 0.00 in0.0 mm
01:10 PM 46.0°F7.8°C 29.3°F-1.5°C 52% 9.2 mph SE14.8 kmh SE 12.7 mph20.4 kmh 30.29 in1025.7 mb - 0.00 in0.0 mm 0.00 in0.0 mm
01:20 PM 46.6°F8.1°C 28.9°F-1.7°C 50% 6.9 mph SE11.1 kmh SE 10.4 mph16.7 kmh 30.28 in1025.4 mb - 0.00 in0.0 mm 0.00 in0.0 mm
01:30 PM 47.8°F8.8°C 30.0°F-1.1°C 50% 6.9 mph SE11.1 kmh SE 9.2 mph14.8 kmh 30.26 in1024.7 mb - 0.00 in0.0 mm 0.00 in0.0 mm
01:40 PM 46.9°F8.3°C 28.7°F-1.8°C 49% 9.2 mph S14.8 kmh S 18.4 mph29.6 kmh 30.26 in1024.7 mb - 0.00 in0.0 mm 0.00 in0.0 mm
01:50 PM 47.1°F8.4°C 29.4°F-1.4°C 50% 9.2 mph SE14.8 kmh SE 16.1 mph25.9 kmh 30.25 in1024.4 mb - 0.00 in0.0 mm 0.00 in0.0 mm
02:00 PM 47.6°F8.7°C 29.9°F-1.2°C 50% 8.1 mph SSE13.0 kmh SSE 15.0 mph24.1 kmh 30.24 in1024.0 mb - 0.00 in0.0 mm 0.00 in0.0 mm
02:10 PM 48.8°F9.3°C 29.9°F-1.2°C 48% 8.1 mph S13.0 kmh S 11.5 mph18.5 kmh 30.24 in1024.0 mb - 0.00 in0.0 mm 0.00 in0.0 mm
02:20 PM 49.4°F9.7°C 30.5°F-0.8°C 48% 8.1 mph S13.0 kmh S 12.7 mph20.4 kmh 30.23 in1023.7 mb - 0.00 in0.0 mm 0.00 in0.0 mm
02:30 PM 50.3°F10.2°C 29.7°F-1.3°C 45% 10.4 mph SE16.7 kmh SE 12.7 mph20.4 kmh 30.22 in1023.4 mb - 0.00 in0.0 mm 0.00 in0.0 mm
02:40 PM 50.0°F10.0°C 28.9°F-1.7°C 44% 12.7 mph S20.4 kmh S 21.9 mph35.2 kmh 30.22 in1023.4 mb - 0.00 in0.0 mm 0.00 in0.0 mm
02:50 PM 49.7°F9.8°C 29.7°F-1.3°C 46% 8.1 mph S13.0 kmh S 15.0 mph24.1 kmh 30.21 in1023.0 mb - 0.00 in0.0 mm 0.00 in0.0 mm
03:00 PM 49.7°F9.8°C 29.7°F-1.3°C 46% 9.2 mph S14.8 kmh S 11.5 mph18.5 kmh 30.20 in1022.7 mb - 0.00 in0.0 mm 0.00 in0.0 mm
03:10 PM 50.3°F10.2°C 29.2°F-1.6°C 44% 10.4 mph S16.7 kmh S 15.0 mph24.1 kmh 30.21 in1023.0 mb - 0.00 in0.0 mm 0.00 in0.0 mm
03:20 PM 50.1°F10.1°C 29.0°F-1.7°C 44% 8.1 mph S13.0 kmh S 11.5 mph18.5 kmh 30.20 in1022.7 mb - 0.00 in0.0 mm 0.00 in0.0 mm
03:30 PM 50.6°F10.3°C 28.9°F-1.7°C 43% 6.9 mph S11.1 kmh S 16.1 mph25.9 kmh 30.19 in1022.4 mb - 0.00 in0.0 mm 0.00 in0.0 mm
03:40 PM 50.5°F10.3°C 28.2°F-2.1°C 42% 8.1 mph S13.0 kmh S 12.7 mph20.4 kmh 30.19 in1022.4 mb - 0.00 in0.0 mm 0.00 in0.0 mm
03:50 PM 50.3°F10.2°C 29.2°F-1.6°C 44% 5.8 mph S9.3 kmh S 10.4 mph16.7 kmh 30.18 in1022.0 mb - 0.00 in0.0 mm 0.00 in0.0 mm
04:00 PM 50.1°F10.1°C 28.4°F-2.0°C 43% 6.9 mph S11.1 kmh S 11.5 mph18.5 kmh 30.17 in1021.7 mb - 0.00 in0.0 mm 0.00 in0.0 mm
04:10 PM 50.3°F10.2°C 28.1°F-2.2°C 42% 5.8 mph S9.3 kmh S 17.3 mph27.8 kmh 30.16 in1021.3 mb - 0.00 in0.0 mm 0.00 in0.0 mm
04:20 PM 51.0°F10.6°C 28.7°F-1.8°C 42% 6.9 mph S11.1 kmh S 13.8 mph22.2 kmh 30.16 in1021.3 mb - 0.00 in0.0 mm 0.00 in0.0 mm
04:30 PM 50.5°F10.3°C 28.8°F-1.8°C 43% 6.9 mph SSE11.1 kmh SSE 16.1 mph25.9 kmh 30.16 in1021.3 mb - 0.00 in0.0 mm 0.00 in0.0 mm
04:40 PM 50.1°F10.1°C 29.6°F-1.3°C 45% 4.6 mph SSE7.4 kmh SSE 9.2 mph14.8 kmh 30.15 in1021.0 mb - 0.00 in0.0 mm 0.00 in0.0 mm
04:50 PM 50.0°F10.0°C 29.5°F-1.4°C 45% 4.6 mph SSE7.4 kmh SSE 6.9 mph11.1 kmh 30.14 in1020.7 mb - 0.00 in0.0 mm 0.00 in0.0 mm
05:00 PM 49.9°F9.9°C 28.8°F-1.8°C 44% 5.8 mph S9.3 kmh S 8.1 mph13.0 kmh 30.14 in1020.7 mb - 0.00 in0.0 mm 0.00 in0.0 mm
05:10 PM 49.7°F9.8°C 28.1°F-2.2°C 43% 8.1 mph S13.0 kmh S 11.5 mph18.5 kmh 30.13 in1020.3 mb - 0.00 in0.0 mm 0.00 in0.0 mm
05:20 PM 49.5°F9.7°C 28.5°F-1.9°C 44% 8.1 mph S13.0 kmh S 11.5 mph18.5 kmh 30.12 in1020.0 mb - 0.00 in0.0 mm 0.00 in0.0 mm
05:30 PM 49.2°F9.6°C 28.2°F-2.1°C 44% 8.1 mph S13.0 kmh S 11.5 mph18.5 kmh 30.12 in1020.0 mb - 0.00 in0.0 mm 0.00 in0.0 mm
05:40 PM 49.0°F9.4°C 29.6°F-1.3°C 47% 5.8 mph SSE9.3 kmh SSE 6.9 mph11.1 kmh 30.11 in1019.6 mb - 0.00 in0.0 mm 0.00 in0.0 mm
05:50 PM 48.5°F9.2°C 31.1°F-0.5°C 51% 4.6 mph S7.4 kmh S 8.1 mph13.0 kmh 30.12 in1020.0 mb - 0.00 in0.0 mm 0.00 in0.0 mm
06:00 PM 48.3°F9.1°C 31.0°F-0.6°C 51% 3.5 mph S5.6 kmh S 4.6 mph7.4 kmh 30.12 in1020.0 mb - 0.00 in0.0 mm 0.00 in0.0 mm
06:10 PM 48.0°F8.9°C 32.6°F0.3°C 55% 4.6 mph SSE7.4 kmh SSE 5.8 mph9.3 kmh 30.12 in1020.0 mb - 0.00 in0.0 mm 0.00 in0.0 mm
06:20 PM 48.0°F8.9°C 31.7°F-0.2°C 53% 10.4 mph SSE16.7 kmh SSE 15.0 mph24.1 kmh 30.10 in1019.3 mb - 0.00 in0.0 mm 0.00 in0.0 mm
06:30 PM 48.1°F8.9°C 31.8°F-0.1°C 53% 9.2 mph SSE14.8 kmh SSE 16.1 mph25.9 kmh 30.08 in1018.6 mb - 0.00 in0.0 mm 0.00 in0.0 mm
06:40 PM 48.4°F9.1°C 31.1°F-0.5°C 51% 5.8 mph S9.3 kmh S 15.0 mph24.1 kmh 30.08 in1018.6 mb - 0.00 in0.0 mm 0.00 in0.0 mm
06:50 PM 48.6°F9.2°C 30.8°F-0.7°C 50% 6.9 mph S11.1 kmh S 11.5 mph18.5 kmh 30.07 in1018.3 mb - 0.00 in0.0 mm 0.00 in0.0 mm
07:00 PM 48.6°F9.2°C 31.3°F-0.4°C 51% 9.2 mph S14.8 kmh S 16.1 mph25.9 kmh 30.06 in1017.9 mb - 0.00 in0.0 mm 0.00 in0.0 mm
07:10 PM 48.6°F9.2°C 31.7°F-0.2°C 52% 10.4 mph SSE16.7 kmh SSE 11.5 mph18.5 kmh 30.06 in1017.9 mb - 0.00 in0.0 mm 0.00 in0.0 mm
07:20 PM 48.6°F9.2°C 31.7°F-0.2°C 52% 5.8 mph S9.3 kmh S 19.6 mph31.5 kmh 30.06 in1017.9 mb - 0.00 in0.0 mm 0.00 in0.0 mm
07:30 PM 48.6°F9.2°C 31.7°F-0.2°C 52% 8.1 mph SSE13.0 kmh SSE 11.5 mph18.5 kmh 30.07 in1018.3 mb - 0.00 in0.0 mm 0.00 in0.0 mm
07:40 PM 48.6°F9.2°C 31.8°F-0.1°C 52% 5.8 mph S9.3 kmh S 11.5 mph18.5 kmh 30.07 in1018.3 mb - 0.00 in0.0 mm 0.00 in0.0 mm
07:50 PM 48.6°F9.2°C 31.3°F-0.4°C 51% 8.1 mph SSE13.0 kmh SSE 11.5 mph18.5 kmh 30.06 in1017.9 mb - 0.00 in0.0 mm 0.00 in0.0 mm
08:00 PM 48.5°F9.2°C 31.2°F-0.4°C 51% 10.4 mph SSE16.7 kmh SSE 15.0 mph24.1 kmh 30.05 in1017.6 mb - 0.00 in0.0 mm 0.00 in0.0 mm
08:10 PM 48.4°F9.1°C 31.1°F-0.5°C 51% 5.8 mph SSE9.3 kmh SSE 10.4 mph16.7 kmh 30.05 in1017.6 mb - 0.00 in0.0 mm 0.00 in0.0 mm
08:20 PM 48.5°F9.2°C 31.2°F-0.4°C 51% 8.1 mph S13.0 kmh S 21.9 mph35.2 kmh 30.05 in1017.6 mb - 0.00 in0.0 mm 0.00 in0.0 mm
08:30 PM 48.7°F9.3°C 31.4°F-0.3°C 51% 8.1 mph S13.0 kmh S 11.5 mph18.5 kmh 30.05 in1017.6 mb - 0.00 in0.0 mm 0.00 in0.0 mm
08:40 PM 48.7°F9.3°C 32.3°F0.2°C 53% 10.4 mph S16.7 kmh S 16.1 mph25.9 kmh 30.05 in1017.6 mb - 0.00 in0.0 mm 0.00 in0.0 mm
08:50 PM 48.6°F9.2°C 32.7°F0.4°C 54% 10.4 mph S16.7 kmh S 15.0 mph24.1 kmh 30.04 in1017.3 mb - 0.00 in0.0 mm 0.00 in0.0 mm
09:00 PM 48.4°F9.1°C 33.0°F0.6°C 55% 8.1 mph SSE13.0 kmh SSE 11.5 mph18.5 kmh 30.02 in1016.6 mb - 0.00 in0.0 mm 0.00 in0.0 mm
09:10 PM 48.1°F8.9°C 33.6°F0.9°C 57% 11.5 mph SSE18.5 kmh SSE 23.0 mph37.0 kmh 30.02 in1016.6 mb - 0.00 in0.0 mm 0.00 in0.0 mm
09:20 PM 48.1°F8.9°C 34.0°F1.1°C 58% 8.1 mph SSE13.0 kmh SSE 11.5 mph18.5 kmh 30.02 in1016.6 mb - 0.00 in0.0 mm 0.00 in0.0 mm
09:30 PM 48.1°F8.9°C 34.5°F1.4°C 59% 8.1 mph S13.0 kmh S 13.8 mph22.2 kmh 30.00 in1015.9 mb - 0.00 in0.0 mm 0.00 in0.0 mm
09:40 PM 48.2°F9.0°C 34.9°F1.6°C 60% 8.1 mph S13.0 kmh S 15.0 mph24.1 kmh 30.00 in1015.9 mb - 0.00 in0.0 mm 0.00 in0.0 mm
09:50 PM 48.3°F9.1°C 35.5°F1.9°C 61% 10.4 mph S16.7 kmh S 19.6 mph31.5 kmh 30.01 in1016.3 mb - 0.00 in0.0 mm 0.00 in0.0 mm
10:00 PM 48.3°F9.1°C 35.0°F1.7°C 60% 8.1 mph S13.0 kmh S 18.4 mph29.6 kmh 30.00 in1015.9 mb - 0.00 in0.0 mm 0.00 in0.0 mm
10:10 PM 48.1°F8.9°C 35.3°F1.8°C 61% 12.7 mph S20.4 kmh S 21.9 mph35.2 kmh 30.00 in1015.9 mb - 0.00 in0.0 mm 0.00 in0.0 mm
10:20 PM 48.1°F8.9°C 35.2°F1.8°C 61% 9.2 mph S14.8 kmh S 19.6 mph31.5 kmh 30.00 in1015.9 mb - 0.00 in0.0 mm 0.00 in0.0 mm
10:30 PM 47.9°F8.8°C 35.1°F1.7°C 61% 12.7 mph S20.4 kmh S 18.4 mph29.6 kmh 30.00 in1015.9 mb - 0.00 in0.0 mm 0.00 in0.0 mm
10:40 PM 47.9°F8.8°C 35.1°F1.7°C 61% 12.7 mph S20.4 kmh S 20.7 mph33.3 kmh 30.00 in1015.9 mb - 0.00 in0.0 mm 0.00 in0.0 mm
10:50 PM 47.9°F8.8°C 35.1°F1.7°C 61% 5.8 mph S9.3 kmh S 11.5 mph18.5 kmh 30.00 in1015.9 mb - 0.00 in0.0 mm 0.00 in0.0 mm
11:00 PM 47.9°F8.8°C 35.1°F1.7°C 61% 10.4 mph S16.7 kmh S 17.3 mph27.8 kmh 30.00 in1015.9 mb - 0.00 in0.0 mm 0.00 in0.0 mm
11:10 PM 47.9°F8.8°C 35.5°F1.9°C 62% 9.2 mph S14.8 kmh S 16.1 mph25.9 kmh 29.99 in1015.6 mb - 0.00 in0.0 mm 0.00 in0.0 mm
11:20 PM 47.8°F8.8°C 35.4°F1.9°C 62% 8.1 mph S13.0 kmh S 13.8 mph22.2 kmh 30.00 in1015.9 mb - 0.00 in0.0 mm 0.00 in0.0 mm
11:30 PM 47.8°F8.8°C 35.8°F2.1°C 63% 10.4 mph S16.7 kmh S 17.3 mph27.8 kmh 29.99 in1015.6 mb - 0.00 in0.0 mm 0.00 in0.0 mm
11:40 PM 47.9°F8.8°C 35.9°F2.2°C 63% 6.9 mph S11.1 kmh S 11.5 mph18.5 kmh 30.00 in1015.9 mb - 0.00 in0.0 mm 0.00 in0.0 mm
11:50 PM 47.7°F8.7°C 36.1°F2.3°C 64% 11.5 mph S18.5 kmh S 19.6 mph31.5 kmh 29.99 in1015.6 mb - 0.00 in0.0 mm 0.00 in0.0 mm